Time;durP1;ratioP1;P1;durP2;ratioP2;P2;SDS_P1;SDS_P2;PMS_P1;PMS_P2;Temp;Humidity;BMP_temperature;BMP_pressure;BME280_temperature;BME280_humidity;BME280_pressure;Samples;Min_cycle;Max_cycle;Signal;HPM_P1;HPM_P2
2022/06/12 00:00:56;;;;;;;;;;;23.20;82.40;;;;;;5008154;28;19920;-70
2022/06/12 00:03:23;;;;;;;;;;;23.20;84.10;;;;;;5006581;28;19961;-70
2022/06/12 00:05:50;;;;;;;;;;;23.20;84.10;;;;;;5007207;28;19996;-70
2022/06/12 00:08:16;;;;;;;;;;;23.10;83.50;;;;;;5007246;28;19914;-69
2022/06/12 00:10:43;;;;;;;;;;;23.00;84.00;;;;;;5009128;28;19910;-70
2022/06/12 00:13:10;;;;;;;;;;;23.00;84.80;;;;;;5006281;28;19913;-70
2022/06/12 00:15:36;;;;;;;;;;;23.00;84.30;;;;;;5005315;28;19917;-70
2022/06/12 00:18:03;;;;;;;;;;;23.00;84.50;;;;;;5003665;28;20396;-69
2022/06/12 00:20:29;;;;;;;;;;;22.80;84.90;;;;;;5009320;28;19917;-70
2022/06/12 00:22:54;;;;;;;;;;;22.80;85.90;;;;;;5011217;28;20290;-69
2022/06/12 00:25:22;;;;;;;;;;;22.70;85.00;;;;;;5009584;28;19916;-70
2022/06/12 00:27:48;;;;;;;;;;;22.80;85.40;;;;;;5009129;28;19917;-70
2022/06/12 00:30:16;;;;;;;;;;;22.80;85.00;;;;;;5009103;28;19951;-70
2022/06/12 00:32:42;;;;;;;;;;;22.90;84.90;;;;;;5009380;28;20348;-70
2022/06/12 00:35:10;;;;;;;;;;;22.90;84.50;;;;;;5011013;28;20284;-70
2022/06/12 00:37:36;;;;;;;;;;;23.00;83.70;;;;;;5011317;28;20440;-70
2022/06/12 00:40:04;;;;;;;;;;;23.00;83.70;;;;;;5008624;28;19916;-69
2022/06/12 00:42:31;;;;;;;;;;;23.00;83.90;;;;;;5009369;28;19924;-70
2022/06/12 00:44:58;;;;;;;;;;;23.10;83.10;;;;;;5009021;28;19910;-70
2022/06/12 00:47:24;;;;;;;;;;;23.10;83.20;;;;;;5010965;28;19918;-70
2022/06/12 00:49:53;;;;;;;;;;;23.20;83.00;;;;;;5012162;28;19912;-70
2022/06/12 00:52:22;;;;;;;;;;;23.20;83.10;;;;;;5009706;28;19912;-69
2022/06/12 00:54:49;;;;;;;;;;;23.30;83.00;;;;;;5008397;28;20350;-70
2022/06/12 00:57:16;;;;;;;;;;;23.30;83.00;;;;;;5009031;28;19909;-70
2022/06/12 00:59:52;;;;;;;;;;;23.30;83.40;;;;;;5013216;28;19996;-70
2022/06/12 01:02:20;;;;;;;;;;;23.30;83.50;;;;;;4997529;28;19913;-70
2022/06/12 01:07:32;;;;;;;;;;;23.10;85.80;;;;;;5011036;28;19998;-69
2022/06/12 01:10:01;;;;;;;;;;;23.20;85.20;;;;;;5012745;28;19909;-70
2022/06/12 01:12:30;;;;;;;;;;;23.20;85.40;;;;;;5012492;28;20405;-70
2022/06/12 01:14:58;;;;;;;;;;;23.20;85.90;;;;;;5012902;28;20328;-70
2022/06/12 01:17:24;;;;;;;;;;;23.10;86.10;;;;;;5012912;28;20316;-69
2022/06/12 01:19:53;;;;;;;;;;;23.00;86.10;;;;;;5011649;28;19906;-70
2022/06/12 01:22:27;;;;;;;;;;;23.10;87.10;;;;;;5012600;28;19917;-69
2022/06/12 01:25:16;;;;;;;;;;;23.00;87.30;;;;;;5012906;28;19905;-70
2022/06/12 01:27:44;;;;;;;;;;;22.80;87.20;;;;;;5006321;28;19959;-70
2022/06/12 01:30:20;;;;;;;;;;;22.70;87.70;;;;;;5012815;28;19912;-70
2022/06/12 01:33:01;;;;;;;;;;;22.60;87.50;;;;;;5012625;28;19931;-70
2022/06/12 01:35:38;;;;;;;;;;;22.40;87.20;;;;;;4998172;28;19919;-70
2022/06/12 01:38:18;;;;;;;;;;;22.30;87.20;;;;;;5011175;28;19911;-70
2022/06/12 01:41:06;;;;;;;;;;;22.20;88.00;;;;;;5026774;28;20344;-70
2022/06/12 01:43:39;;;;;;;;;;;22.20;89.20;;;;;;5005983;28;20031;-69
2022/06/12 01:46:12;;;;;;;;;;;22.30;88.90;;;;;;5012978;28;20004;-70
2022/06/12 01:48:40;;;;;;;;;;;22.20;88.80;;;;;;5012648;28;20017;-69
2022/06/12 01:51:06;;;;;;;;;;;22.20;87.60;;;;;;5012645;28;19909;-70
2022/06/12 01:53:47;;;;;;;;;;;22.10;87.90;;;;;;5012358;28;19913;-69
2022/06/12 01:56:36;;;;;;;;;;;22.10;88.90;;;;;;5013992;28;19909;-70
2022/06/12 01:59:21;;;;;;;;;;;22.20;89.10;;;;;;5008216;28;20457;-69
2022/06/12 02:01:53;;;;;;;;;;;22.30;88.90;;;;;;5011063;28;19913;-69
2022/06/12 02:04:27;;;;;;;;;;;22.40;89.10;;;;;;5015518;28;19917;-69
2022/06/12 02:07:01;;;;;;;;;;;22.60;88.80;;;;;;5015625;28;19916;-70
2022/06/12 02:09:41;;;;;;;;;;;22.60;87.10;;;;;;5015870;28;20397;-70
2022/06/12 02:14:57;;;;;;;;;;;22.80;78.80;;;;;;5016913;28;19963;-70
2022/06/12 02:17:25;;;;;;;;;;;22.90;75.80;;;;;;5015877;28;19913;-69
2022/06/12 02:19:51;;;;;;;;;;;23.00;73.90;;;;;;5014814;28;19906;-69
2022/06/12 02:22:20;;;;;;;;;;;23.00;72.90;;;;;;5013558;28;19936;-70
2022/06/12 02:24:53;;;;;;;;;;;23.10;72.50;;;;;;5015409;28;19967;-69
2022/06/12 02:27:23;;;;;;;;;;;23.10;71.60;;;;;;5015701;28;19964;-69
2022/06/12 02:29:56;;;;;;;;;;;23.20;71.80;;;;;;5015752;28;19909;-70
2022/06/12 02:32:25;;;;;;;;;;;23.20;72.60;;;;;;4999867;28;19917;-70
2022/06/12 02:34:54;;;;;;;;;;;23.20;72.30;;;;;;5014531;28;19913;-70
2022/06/12 02:37:22;;;;;;;;;;;23.10;73.60;;;;;;5015070;28;19956;-69
2022/06/12 02:39:51;;;;;;;;;;;23.00;73.90;;;;;;5015391;28;19917;-69
2022/06/12 02:42:23;;;;;;;;;;;23.10;73.00;;;;;;5015510;28;19909;-69
2022/06/12 02:44:58;;;;;;;;;;;23.10;75.40;;;;;;5015342;28;20285;-69
2022/06/12 02:47:25;;;;;;;;;;;23.10;75.70;;;;;;5000486;28;20289;-70
2022/06/12 02:49:53;;;;;;;;;;;23.00;76.60;;;;;;5013751;28;20051;-70
2022/06/12 02:52:21;;;;;;;;;;;22.80;81.30;;;;;;5015040;28;19967;-69
2022/06/12 02:55:05;;;;;;;;;;;22.60;81.00;;;;;;5015028;28;19937;-70
2022/06/12 02:57:30;;;;;;;;;;;22.60;81.40;;;;;;5014886;28;19991;-69
2022/06/12 03:00:03;;;;;;;;;;;22.70;79.60;;;;;;5015039;28;20397;-69
2022/06/12 03:02:32;;;;;;;;;;;22.90;78.30;;;;;;5014402;28;20325;-69
2022/06/12 03:05:05;;;;;;;;;;;22.90;76.40;;;;;;5013729;28;19909;-70
2022/06/12 03:07:31;;;;;;;;;;;23.00;75.70;;;;;;5026403;28;19905;-69
2022/06/12 03:09:59;;;;;;;;;;;23.10;74.10;;;;;;5016542;28;19988;-69
2022/06/12 03:12:27;;;;;;;;;;;23.10;73.10;;;;;;5014823;28;20055;-69
2022/06/12 03:14:54;;;;;;;;;;;23.10;73.30;;;;;;5009218;28;19917;-69
2022/06/12 03:17:20;;;;;;;;;;;23.20;74.80;;;;;;5014801;28;19909;-70
2022/06/12 03:19:48;;;;;;;;;;;23.10;77.90;;;;;;5009223;28;19909;-70
2022/06/12 03:22:16;;;;;;;;;;;22.90;78.90;;;;;;5014810;28;19936;-70
2022/06/12 03:25:00;;;;;;;;;;;22.90;78.90;;;;;;5014421;28;19952;-70
2022/06/12 03:27:41;;;;;;;;;;;22.90;78.30;;;;;;5012766;28;20293;-70
2022/06/12 03:30:13;;;;;;;;;;;23.00;78.40;;;;;;5014536;28;19910;-69
2022/06/12 03:32:57;;;;;;;;;;;23.00;75.50;;;;;;5014628;28;19917;-69
2022/06/12 03:35:32;;;;;;;;;;;23.00;74.40;;;;;;4999080;28;19916;-69
2022/06/12 03:38:16;;;;;;;;;;;23.10;72.70;;;;;;5013493;28;19905;-70
2022/06/12 03:40:50;;;;;;;;;;;23.20;72.10;;;;;;5012645;28;19916;-70
2022/06/12 03:43:31;;;;;;;;;;;23.30;72.00;;;;;;5015320;28;20278;-69
2022/06/12 03:46:20;;;;;;;;;;;23.30;72.00;;;;;;5014246;28;19909;-69
2022/06/12 03:49:05;;;;;;;;;;;23.30;71.70;;;;;;4971409;28;20429;-70
2022/06/12 03:51:34;;;;;;;;;;;23.40;71.30;;;;;;4971601;28;19957;-70
2022/06/12 03:54:00;;;;;;;;;;;23.40;72.50;;;;;;4971392;28;19910;-70
2022/06/12 03:59:29;;;;;;;;;;;23.00;77.10;;;;;;4956882;28;20442;-70
2022/06/12 04:01:55;;;;;;;;;;;22.70;78.90;;;;;;4953018;28;20118;-70
2022/06/12 04:04:21;;;;;;;;;;;22.50;80.20;;;;;;4971194;28;20486;-69
2022/06/12 04:06:48;;;;;;;;;;;22.30;81.20;;;;;;4971318;28;19910;-69
2022/06/12 04:09:16;;;;;;;;;;;22.30;82.20;;;;;;4971441;28;19910;-69
2022/06/12 04:11:42;;;;;;;;;;;22.20;82.90;;;;;;4971055;28;19918;-69
2022/06/12 04:14:13;;;;;;;;;;;22.10;83.20;;;;;;4971157;28;19906;-70
2022/06/12 04:16:40;;;;;;;;;;;22.10;83.30;;;;;;4971695;28;19960;-70
2022/06/12 04:19:07;;;;;;;;;;;22.20;84.10;;;;;;4970546;28;19960;-69
2022/06/12 04:21:51;;;;;;;;;;;22.10;84.60;;;;;;4970953;28;20053;-69
2022/06/12 04:24:17;;;;;;;;;;;22.00;84.90;;;;;;4970746;28;20045;-69
2022/06/12 04:26:42;;;;;;;;;;;22.00;85.20;;;;;;5009161;28;20366;-69
2022/06/12 04:29:11;;;;;;;;;;;22.00;86.20;;;;;;5013092;28;20362;-69
2022/06/12 04:31:37;;;;;;;;;;;21.80;85.80;;;;;;5012649;28;19909;-69
2022/06/12 04:34:17;;;;;;;;;;;21.70;86.10;;;;;;5012658;28;19945;-70
2022/06/12 04:36:44;;;;;;;;;;;21.70;85.70;;;;;;5012992;28;19909;-69
2022/06/12 04:39:11;;;;;;;;;;;22.00;85.20;;;;;;5013485;28;19910;-69
2022/06/12 04:41:37;;;;;;;;;;;22.00;84.70;;;;;;5013213;28;19910;-70
2022/06/12 04:44:06;;;;;;;;;;;22.20;83.90;;;;;;5012908;28;19992;-70
2022/06/12 04:46:33;;;;;;;;;;;22.20;82.60;;;;;;5010689;28;19916;-70
2022/06/12 04:48:59;;;;;;;;;;;22.30;83.10;;;;;;5013158;28;20384;-70
2022/06/12 04:51:25;;;;;;;;;;;22.40;83.50;;;;;;5013124;28;20021;-70
2022/06/12 04:53:51;;;;;;;;;;;22.50;83.70;;;;;;5013145;28;19906;-70
2022/06/12 04:56:19;;;;;;;;;;;22.50;83.70;;;;;;5011890;28;19917;-69
2022/06/12 04:58:45;;;;;;;;;;;22.50;83.60;;;;;;5011821;28;19910;-69
2022/06/12 05:01:11;;;;;;;;;;;22.60;82.10;;;;;;5012817;28;20384;-70
2022/06/12 05:03:37;;;;;;;;;;;22.70;80.00;;;;;;5012946;28;19917;-69
2022/06/12 05:06:03;;;;;;;;;;;22.70;78.50;;;;;;5013312;28;19909;-70
2022/06/12 05:08:29;;;;;;;;;;;22.80;76.90;;;;;;5013243;28;19909;-70
2022/06/12 05:10:55;;;;;;;;;;;22.80;79.60;;;;;;5012399;28;19996;-70
2022/06/12 05:13:21;;;;;;;;;;;22.80;83.40;;;;;;5013028;28;20401;-69
2022/06/12 05:15:47;;;;;;;;;;;22.70;85.60;;;;;;5012585;28;19910;-69
2022/06/12 05:18:14;;;;;;;;;;;22.50;86.60;;;;;;5012561;28;20617;-69
2022/06/12 05:20:40;;;;;;;;;;;22.30;87.00;;;;;;5013401;28;19917;-69
2022/06/12 05:23:06;;;;;;;;;;;22.30;86.80;;;;;;5012603;28;19921;-68
2022/06/12 05:25:32;;;;;;;;;;;22.20;86.90;;;;;;5012297;28;19996;-67
2022/06/12 05:27:58;;;;;;;;;;;22.20;86.50;;;;;;5012798;28;20388;-67
2022/06/12 05:30:25;;;;;;;;;;;22.30;87.00;;;;;;5012953;28;19913;-68
2022/06/12 05:32:52;;;;;;;;;;;22.30;86.40;;;;;;5016797;28;19905;-67
2022/06/12 05:35:18;;;;;;;;;;;22.30;86.60;;;;;;5016140;28;19924;-68
2022/06/12 05:37:44;;;;;;;;;;;22.20;87.20;;;;;;5015081;28;19932;-69
2022/06/12 05:40:12;;;;;;;;;;;22.30;87.70;;;;;;5015989;28;19916;-68
2022/06/12 05:42:38;;;;;;;;;;;22.30;87.00;;;;;;5009948;28;19917;-68
2022/06/12 05:45:08;;;;;;;;;;;22.40;87.40;;;;;;5008085;28;20275;-68
2022/06/12 05:47:34;;;;;;;;;;;22.30;87.70;;;;;;5016541;28;19909;-68
2022/06/12 05:50:00;;;;;;;;;;;22.30;88.20;;;;;;5015973;28;20295;-68
2022/06/12 05:52:25;;;;;;;;;;;22.30;88.80;;;;;;5015997;28;19909;-68
2022/06/12 05:54:51;;;;;;;;;;;22.20;88.00;;;;;;5016391;28;19948;-69
2022/06/12 05:57:16;;;;;;;;;;;22.20;89.00;;;;;;5015690;28;19909;-68
2022/06/12 05:59:42;;;;;;;;;;;22.10;89.20;;;;;;5015765;28;19910;-68
2022/06/12 06:02:08;;;;;;;;;;;22.20;89.00;;;;;;5016256;28;20286;-72
2022/06/12 06:04:34;;;;;;;;;;;22.20;88.80;;;;;;5014797;28;19918;-68
2022/06/12 06:06:59;;;;;;;;;;;22.30;87.30;;;;;;5016127;28;19909;-67
2022/06/12 06:09:26;;;;;;;;;;;22.40;87.90;;;;;;5015400;28;20408;-69
2022/06/12 06:11:51;;;;;;;;;;;22.30;87.80;;;;;;5016096;28;19909;-69
2022/06/12 06:14:17;;;;;;;;;;;22.40;88.20;;;;;;5015643;28;19917;-69
2022/06/12 06:16:43;;;;;;;;;;;22.50;88.00;;;;;;5014972;28;20293;-69
2022/06/12 06:19:09;;;;;;;;;;;22.40;88.20;;;;;;5015863;28;19913;-68
2022/06/12 06:21:35;;;;;;;;;;;22.50;88.30;;;;;;5015591;28;19923;-68
2022/06/12 06:24:01;;;;;;;;;;;22.60;86.40;;;;;;5016238;28;20013;-69
2022/06/12 06:26:27;;;;;;;;;;;22.60;86.70;;;;;;5015773;28;19953;-69
2022/06/12 06:28:53;;;;;;;;;;;22.60;86.10;;;;;;5014344;28;19906;-68
2022/06/12 06:31:19;;;;;;;;;;;22.60;85.60;;;;;;5015505;28;19905;-68
2022/06/12 06:33:45;;;;;;;;;;;22.70;84.90;;;;;;5010020;28;19910;-69
2022/06/12 06:36:11;;;;;;;;;;;22.80;84.90;;;;;;5014980;28;20350;-68
2022/06/12 06:38:37;;;;;;;;;;;22.80;82.90;;;;;;5015826;28;20361;-68
2022/06/12 06:41:03;;;;;;;;;;;22.90;83.40;;;;;;5015069;28;19972;-69
2022/06/12 06:43:28;;;;;;;;;;;23.00;83.90;;;;;;5014279;28;19913;-69
2022/06/12 06:48:38;;;;;;;;;;;23.20;81.30;;;;;;5015395;28;19955;-70
2022/06/12 06:51:04;;;;;;;;;;;23.30;80.10;;;;;;5014644;28;19917;-69
2022/06/12 06:53:30;;;;;;;;;;;23.40;79.60;;;;;;5015574;28;19909;-70
2022/06/12 06:55:55;;;;;;;;;;;23.50;79.40;;;;;;5014424;28;20369;-70
2022/06/12 06:58:22;;;;;;;;;;;23.50;77.80;;;;;;5014522;28;19916;-67
2022/06/12 07:00:48;;;;;;;;;;;23.60;76.80;;;;;;5014729;28;20293;-68
2022/06/12 07:03:14;;;;;;;;;;;23.60;77.60;;;;;;5014972;28;19925;-68
2022/06/12 07:05:41;;;;;;;;;;;23.70;75.70;;;;;;5014593;28;19920;-68
2022/06/12 07:08:06;;;;;;;;;;;23.80;72.20;;;;;;5015375;28;19909;-69
2022/06/12 07:10:33;;;;;;;;;;;23.80;73.20;;;;;;5014244;28;19905;-69
2022/06/12 07:12:59;;;;;;;;;;;23.90;70.50;;;;;;5014174;28;19913;-69
2022/06/12 07:15:26;;;;;;;;;;;23.90;71.40;;;;;;5014799;28;20382;-69
2022/06/12 07:17:53;;;;;;;;;;;24.00;70.50;;;;;;5014639;28;19913;-68
2022/06/12 07:20:21;;;;;;;;;;;24.10;70.80;;;;;;4998922;28;20008;-69
2022/06/12 07:22:46;;;;;;;;;;;24.10;70.80;;;;;;5010020;28;20388;-68
2022/06/12 07:25:13;;;;;;;;;;;24.10;67.80;;;;;;5014418;28;19909;-68
2022/06/12 07:27:39;;;;;;;;;;;24.20;69.40;;;;;;5013924;28;20386;-69
2022/06/12 07:30:07;;;;;;;;;;;24.20;67.00;;;;;;5014384;28;20309;-70
2022/06/12 07:32:33;;;;;;;;;;;24.20;68.80;;;;;;5014583;28;19909;-71
2022/06/12 07:34:59;;;;;;;;;;;24.30;67.70;;;;;;5012454;28;19909;-74
2022/06/12 07:37:24;;;;;;;;;;;24.40;67.20;;;;;;5014484;28;19956;-75
2022/06/12 07:39:50;;;;;;;;;;;24.40;67.00;;;;;;5014006;28;20357;-73
2022/06/12 07:42:16;;;;;;;;;;;24.40;67.20;;;;;;5014242;28;19913;-74
2022/06/12 07:44:41;;;;;;;;;;;24.50;67.60;;;;;;5014478;28;20014;-75
2022/06/12 07:47:07;;;;;;;;;;;24.50;67.90;;;;;;5013887;28;19905;-74
2022/06/12 07:49:34;;;;;;;;;;;24.50;68.00;;;;;;5015355;28;20359;-74
2022/06/12 07:52:01;;;;;;;;;;;24.60;68.30;;;;;;5013639;28;20007;-74
2022/06/12 07:54:27;;;;;;;;;;;24.70;68.30;;;;;;5012936;28;19917;-74
2022/06/12 07:56:53;;;;;;;;;;;24.90;67.60;;;;;;5014493;28;19910;-74
2022/06/12 07:59:19;;;;;;;;;;;24.90;66.00;;;;;;5014080;28;20273;-74
2022/06/12 08:01:44;;;;;;;;;;;25.10;66.30;;;;;;5013100;28;19905;-74
2022/06/12 08:04:10;;;;;;;;;;;25.10;66.50;;;;;;5013672;28;19917;-74
2022/06/12 08:06:36;;;;;;;;;;;25.10;66.50;;;;;;5014264;28;19920;-74
2022/06/12 08:09:05;;;;;;;;;;;25.10;66.70;;;;;;5013367;28;19909;-74
2022/06/12 08:11:31;;;;;;;;;;;25.20;67.10;;;;;;5013940;28;20319;-74
2022/06/12 08:13:57;;;;;;;;;;;25.20;66.40;;;;;;5012882;28;19988;-74
2022/06/12 08:16:23;;;;;;;;;;;25.30;65.90;;;;;;5013986;28;20047;-74
2022/06/12 08:18:48;;;;;;;;;;;25.40;65.90;;;;;;5013995;28;19909;-75
2022/06/12 08:21:14;;;;;;;;;;;25.40;65.50;;;;;;5013653;28;19925;-74
2022/06/12 08:23:43;;;;;;;;;;;25.40;65.50;;;;;;5013439;28;19917;-73
2022/06/12 08:26:11;;;;;;;;;;;25.40;65.50;;;;;;5013327;28;19909;-76
2022/06/12 08:28:45;;;;;;;;;;;25.50;65.10;;;;;;5014505;28;19913;-75
2022/06/12 08:31:13;;;;;;;;;;;25.60;64.60;;;;;;5013076;28;19916;-75
2022/06/12 08:33:39;;;;;;;;;;;25.60;64.80;;;;;;5013557;28;19913;-75
2022/06/12 08:36:05;;;;;;;;;;;25.80;64.70;;;;;;5013350;28;20281;-74
2022/06/12 08:38:31;;;;;;;;;;;25.70;64.20;;;;;;5013153;28;19936;-76
2022/06/12 08:41:04;;;;;;;;;;;25.80;64.50;;;;;;5012514;28;20317;-75
2022/06/12 08:43:50;;;;;;;;;;;25.80;64.30;;;;;;5014329;28;19917;-75
2022/06/12 08:46:27;;;;;;;;;;;25.70;64.50;;;;;;5004320;28;20488;-76
2022/06/12 08:48:55;;;;;;;;;;;25.90;65.60;;;;;;5013286;28;19909;-74
2022/06/12 08:51:26;;;;;;;;;;;26.20;68.10;;;;;;5013417;28;20378;-75
2022/06/12 08:53:52;;;;;;;;;;;26.20;67.90;;;;;;5013201;28;19905;-74
2022/06/12 08:56:24;;;;;;;;;;;26.10;65.30;;;;;;5012799;28;20294;-75
2022/06/12 08:58:55;;;;;;;;;;;26.20;62.40;;;;;;5008451;28;19906;-75
2022/06/12 09:01:21;;;;;;;;;;;26.40;60.20;;;;;;5013135;28;20362;-75
2022/06/12 09:03:49;;;;;;;;;;;26.40;60.50;;;;;;5007359;28;19924;-75
2022/06/12 09:06:25;;;;;;;;;;;26.60;59.00;;;;;;5014964;28;19972;-75
2022/06/12 09:08:51;;;;;;;;;;;26.70;57.50;;;;;;5016704;28;19963;-75
2022/06/12 09:11:16;;;;;;;;;;;26.60;59.60;;;;;;5015800;28;19913;-75
2022/06/12 09:13:42;;;;;;;;;;;26.50;59.80;;;;;;5016126;28;19909;-76
2022/06/12 09:16:07;;;;;;;;;;;26.60;58.80;;;;;;5017125;28;20362;-76
2022/06/12 09:18:52;;;;;;;;;;;26.50;59.50;;;;;;5016890;28;19909;-75
2022/06/12 09:21:24;;;;;;;;;;;26.60;59.40;;;;;;5016708;28;19918;-76
2022/06/12 09:24:00;;;;;;;;;;;26.60;58.70;;;;;;5017015;28;19953;-75
2022/06/12 09:26:35;;;;;;;;;;;26.70;59.00;;;;;;5001652;28;19913;-76
2022/06/12 09:29:21;;;;;;;;;;;26.70;58.40;;;;;;5015534;28;19948;-75
2022/06/12 09:31:46;;;;;;;;;;;26.60;58.60;;;;;;5016065;28;19940;-75
2022/06/12 09:34:18;;;;;;;;;;;26.80;60.10;;;;;;5017014;28;19956;-75
2022/06/12 09:36:44;;;;;;;;;;;26.70;59.30;;;;;;5016188;28;19909;-75
2022/06/12 09:39:09;;;;;;;;;;;26.90;58.80;;;;;;5016736;28;20369;-75
2022/06/12 09:42:07;;;;;;;;;;;27.10;57.50;;;;;;5016902;28;19920;-75
2022/06/12 09:44:47;;;;;;;;;;;27.10;57.30;;;;;;4980625;28;20395;-75
2022/06/12 09:47:18;;;;;;;;;;;27.20;57.10;;;;;;4995023;28;20157;-75
2022/06/12 09:49:44;;;;;;;;;;;27.30;61.80;;;;;;4993842;28;19952;-75
2022/06/12 09:52:31;;;;;;;;;;;27.30;65.40;;;;;;4993954;28;20335;-75
2022/06/12 09:55:10;;;;;;;;;;;27.60;66.90;;;;;;4994258;28;19960;-75
2022/06/12 09:57:48;;;;;;;;;;;27.80;66.20;;;;;;4994610;28;19913;-75
2022/06/12 10:00:21;;;;;;;;;;;27.70;66.50;;;;;;4993953;28;19916;-75
2022/06/12 10:03:03;;;;;;;;;;;27.90;65.50;;;;;;4994274;28;20481;-75
2022/06/12 10:05:31;;;;;;;;;;;28.10;65.10;;;;;;4967070;28;19916;-76
2022/06/12 10:08:02;;;;;;;;;;;28.20;63.20;;;;;;4993583;28;19906;-75
2022/06/12 10:10:33;;;;;;;;;;;28.10;64.50;;;;;;4994753;28;19917;-76
2022/06/12 10:13:02;;;;;;;;;;;28.10;65.90;;;;;;4993520;28;19921;-76
2022/06/12 10:15:33;;;;;;;;;;;28.30;65.20;;;;;;4993638;28;19945;-76
2022/06/12 10:18:20;;;;;;;;;;;28.20;65.20;;;;;;4993321;28;19913;-76
2022/06/12 10:20:48;;;;;;;;;;;28.30;64.40;;;;;;5009274;28;19917;-76
2022/06/12 10:23:13;;;;;;;;;;;28.30;63.80;;;;;;5015095;28;19956;-75
2022/06/12 10:25:43;;;;;;;;;;;28.50;64.50;;;;;;5014844;28;19991;-76
2022/06/12 10:28:15;;;;;;;;;;;28.50;64.40;;;;;;5014641;28;20321;-78
2022/06/12 10:30:45;;;;;;;;;;;28.60;64.70;;;;;;5015285;28;20278;-76
2022/06/12 10:33:40;;;;;;;;;;;28.50;64.70;;;;;;5015227;28;20385;-74
2022/06/12 10:36:05;;;;;;;;;;;28.80;63.60;;;;;;5005716;28;20033;-74
2022/06/12 10:38:32;;;;;;;;;;;28.50;63.90;;;;;;5015059;28;19910;-77
2022/06/12 10:40:59;;;;;;;;;;;28.40;63.90;;;;;;5014041;28;19905;-76
2022/06/12 10:43:25;;;;;;;;;;;28.40;63.90;;;;;;5015615;28;19953;-79
2022/06/12 10:46:17;;;;;;;;;;;28.60;63.30;;;;;;5014531;28;19948;-77
2022/06/12 10:48:53;;;;;;;;;;;28.80;62.30;;;;;;5011842;28;19916;-72
2022/06/12 10:51:19;;;;;;;;;;;28.80;63.20;;;;;;5014897;28;19916;-71
2022/06/12 10:53:44;;;;;;;;;;;28.80;62.90;;;;;;5015067;28;19913;-70
2022/06/12 10:56:22;;;;;;;;;;;28.50;65.10;;;;;;5014766;28;19933;-71
2022/06/12 10:59:09;;;;;;;;;;;28.40;65.80;;;;;;5014131;28;20008;-72
2022/06/12 11:01:54;;;;;;;;;;;28.40;64.80;;;;;;5012224;28;19916;-74
2022/06/12 11:04:22;;;;;;;;;;;28.40;64.70;;;;;;5015850;28;20409;-72
2022/06/12 11:06:58;;;;;;;;;;;28.10;65.60;;;;;;5014529;28;20378;-74
2022/06/12 11:09:33;;;;;;;;;;;28.20;65.90;;;;;;5015065;28;19909;-72
2022/06/12 11:12:12;;;;;;;;;;;28.20;64.40;;;;;;5014318;28;19910;-72
2022/06/12 11:14:41;;;;;;;;;;;28.00;65.20;;;;;;5014256;28;19932;-72
2022/06/12 11:17:06;;;;;;;;;;;27.90;65.90;;;;;;5014106;28;19910;-72
2022/06/12 11:19:51;;;;;;;;;;;28.10;63.00;;;;;;5011887;28;19916;-72
2022/06/12 11:22:19;;;;;;;;;;;28.40;62.30;;;;;;5014476;28;20366;-73
2022/06/12 11:24:45;;;;;;;;;;;28.50;62.90;;;;;;5014069;28;19964;-72
2022/06/12 11:27:33;;;;;;;;;;;28.40;61.80;;;;;;5014353;28;19956;-72
2022/06/12 11:30:18;;;;;;;;;;;28.50;61.50;;;;;;5008064;28;19962;-75
2022/06/12 11:32:48;;;;;;;;;;;28.40;61.80;;;;;;5013993;28;19921;-74
2022/06/12 11:35:32;;;;;;;;;;;28.30;62.70;;;;;;5014586;28;19932;-73
2022/06/12 11:37:57;;;;;;;;;;;28.50;62.20;;;;;;5010224;28;20366;-73
2022/06/12 11:40:46;;;;;;;;;;;28.60;61.50;;;;;;5014293;28;19988;-73
2022/06/12 11:43:15;;;;;;;;;;;28.70;59.50;;;;;;5014082;28;19961;-73
2022/06/12 11:45:46;;;;;;;;;;;29.00;59.90;;;;;;5013657;28;19955;-73
2022/06/12 11:48:18;;;;;;;;;;;28.90;60.70;;;;;;5013029;28;19909;-74
2022/06/12 11:50:49;;;;;;;;;;;28.80;58.80;;;;;;5013832;28;20306;-73
2022/06/12 11:53:30;;;;;;;;;;;28.90;58.60;;;;;;5014137;28;20051;-73
2022/06/12 11:56:12;;;;;;;;;;;29.00;59.80;;;;;;5009875;28;20017;-74
2022/06/12 11:58:57;;;;;;;;;;;29.00;60.40;;;;;;5027534;28;19932;-74
2022/06/12 12:01:28;;;;;;;;;;;29.50;58.70;;;;;;5013146;28;19910;-74
2022/06/12 12:04:02;;;;;;;;;;;29.80;57.50;;;;;;5014027;28;19971;-77
2022/06/12 12:06:27;;;;;;;;;;;29.60;59.40;;;;;;5013729;28;20290;-76
2022/06/12 12:08:56;;;;;;;;;;;29.70;58.50;;;;;;5013817;28;19910;-78
2022/06/12 12:11:27;;;;;;;;;;;29.60;59.00;;;;;;5006684;28;19913;-80
2022/06/12 12:13:54;;;;;;;;;;;29.30;58.80;;;;;;5006758;28;19932;-81
2022/06/12 12:16:43;;;;;;;;;;;29.50;59.20;;;;;;5008097;28;19968;-80
2022/06/12 12:19:09;;;;;;;;;;;29.50;58.50;;;;;;5005652;28;19909;-80
2022/06/12 12:21:36;;;;;;;;;;;29.60;60.30;;;;;;5005839;28;19932;-81
2022/06/12 12:24:04;;;;;;;;;;;29.80;59.80;;;;;;5006059;28;19967;-81
2022/06/12 12:26:37;;;;;;;;;;;30.00;57.40;;;;;;5006037;28;19913;-80
2022/06/12 12:29:04;;;;;;;;;;;30.00;57.40;;;;;;5007037;28;19910;-80
2022/06/12 12:31:30;;;;;;;;;;;29.90;59.00;;;;;;5007124;28;19916;-79
2022/06/12 12:33:57;;;;;;;;;;;30.20;58.10;;;;;;5006115;28;20301;-79
2022/06/12 12:42:27;;;;;;;;;;;29.90;58.90;;;;;;5012030;28;19967;-80
2022/06/12 12:44:53;;;;;;;;;;;29.90;59.10;;;;;;5001964;28;19930;-80
2022/06/12 12:47:18;;;;;;;;;;;30.20;58.60;;;;;;5004367;28;19920;-80
2022/06/12 12:49:44;;;;;;;;;;;30.30;58.60;;;;;;5007491;28;19909;-80
2022/06/12 12:52:12;;;;;;;;;;;30.20;60.00;;;;;;5006727;28;20319;-80
2022/06/12 12:54:46;;;;;;;;;;;30.30;60.00;;;;;;5005411;28;19913;-80
2022/06/12 12:57:13;;;;;;;;;;;30.20;59.20;;;;;;5004747;28;20448;-80
2022/06/12 12:59:46;;;;;;;;;;;30.20;65.90;;;;;;5003181;28;19913;-80
2022/06/12 13:02:21;;;;;;;;;;;30.10;63.90;;;;;;5006257;28;20337;-80
2022/06/12 13:04:46;;;;;;;;;;;30.40;63.30;;;;;;5007072;28;19975;-77
2022/06/12 13:07:12;;;;;;;;;;;30.40;65.60;;;;;;5004298;28;19909;-78
2022/06/12 13:09:56;;;;;;;;;;;30.30;65.10;;;;;;5006532;28;19920;-77
2022/06/12 13:12:25;;;;;;;;;;;30.20;66.30;;;;;;5006467;28;19910;-78
2022/06/12 13:15:09;;;;;;;;;;;30.30;66.10;;;;;;5007615;28;19948;-78
2022/06/12 13:17:37;;;;;;;;;;;30.20;64.50;;;;;;5005109;28;19913;-78
2022/06/12 13:20:03;;;;;;;;;;;30.00;64.40;;;;;;5009480;28;19906;-78
2022/06/12 13:22:31;;;;;;;;;;;30.20;64.60;;;;;;5008792;28;19909;-79
2022/06/12 13:24:57;;;;;;;;;;;30.10;63.80;;;;;;5007956;28;19921;-78
2022/06/12 13:27:22;;;;;;;;;;;30.00;63.30;;;;;;5007570;28;20021;-78
2022/06/12 13:29:48;;;;;;;;;;;30.00;63.90;;;;;;5006274;28;19919;-78
2022/06/12 13:32:22;;;;;;;;;;;29.80;63.80;;;;;;5001312;28;19964;-77
2022/06/12 13:34:55;;;;;;;;;;;29.80;63.60;;;;;;5001295;28;19992;-77
2022/06/12 13:37:20;;;;;;;;;;;29.90;62.60;;;;;;5003751;28;19932;-77
2022/06/12 13:39:47;;;;;;;;;;;29.80;62.90;;;;;;5001436;28;20378;-78
2022/06/12 13:42:15;;;;;;;;;;;29.80;60.60;;;;;;5000778;28;20067;-78
2022/06/12 13:44:42;;;;;;;;;;;29.80;59.70;;;;;;5012940;28;19955;-77
2022/06/12 13:47:23;;;;;;;;;;;29.80;58.60;;;;;;5005283;28;20146;-76
2022/06/12 13:49:54;;;;;;;;;;;29.80;58.80;;;;;;5007734;28;19913;-78
2022/06/12 13:52:38;;;;;;;;;;;29.60;58.60;;;;;;5008471;28;19913;-78
2022/06/12 13:55:18;;;;;;;;;;;29.80;57.50;;;;;;5008346;28;19936;-77
2022/06/12 13:57:43;;;;;;;;;;;29.70;59.40;;;;;;5008425;28;19919;-76
2022/06/12 14:00:38;;;;;;;;;;;29.60;58.10;;;;;;5009043;28;19909;-80
2022/06/12 14:03:04;;;;;;;;;;;29.80;55.70;;;;;;4999615;28;19923;-75
2022/06/12 14:05:31;;;;;;;;;;;29.80;55.40;;;;;;5008977;28;19909;-75
2022/06/12 14:07:58;;;;;;;;;;;29.60;56.20;;;;;;5011618;28;20397;-75
2022/06/12 14:10:27;;;;;;;;;;;29.50;57.90;;;;;;5009593;28;20310;-78
2022/06/12 14:12:53;;;;;;;;;;;29.60;55.50;;;;;;5007752;28;19913;-76
2022/06/12 14:15:47;;;;;;;;;;;29.90;56.40;;;;;;5009750;28;20279;-78
2022/06/12 14:18:29;;;;;;;;;;;29.80;56.60;;;;;;4969719;28;19940;-79
2022/06/12 14:21:15;;;;;;;;;;;29.80;55.10;;;;;;4970584;28;19980;-73
2022/06/12 14:23:44;;;;;;;;;;;29.80;56.80;;;;;;4970957;28;19932;-73
2022/06/12 14:26:24;;;;;;;;;;;29.90;56.70;;;;;;4968477;28;19910;-73
2022/06/12 14:28:49;;;;;;;;;;;29.90;57.20;;;;;;4969391;28;20498;-73
2022/06/12 14:31:15;;;;;;;;;;;29.70;56.70;;;;;;4970008;28;19921;-73
2022/06/12 14:33:43;;;;;;;;;;;29.80;58.50;;;;;;4969663;28;19921;-73
2022/06/12 14:36:29;;;;;;;;;;;29.80;59.90;;;;;;4970576;28;19910;-73
2022/06/12 14:38:55;;;;;;;;;;;29.80;60.60;;;;;;4970290;28;19978;-74
2022/06/12 14:41:22;;;;;;;;;;;29.60;60.70;;;;;;4952529;28;20434;-75
2022/06/12 14:43:49;;;;;;;;;;;29.70;58.70;;;;;;4962760;28;20040;-72
2022/06/12 14:46:17;;;;;;;;;;;29.70;58.60;;;;;;4966606;28;19914;-72
2022/06/12 14:48:43;;;;;;;;;;;29.70;59.70;;;;;;4966851;28;19997;-71
2022/06/12 14:51:08;;;;;;;;;;;29.80;58.80;;;;;;4971668;28;19949;-72